Millwood, West Virginia
Current Conditions -  °F | °C
As of 11:35 PM on Sunday 25 Jan 2015 (Local Time) from K3I2 Reporting Station
Light Rain Light Rain  
Wind Chill: 37°   Ceiling: 2700
Heat Index: 37°   Visibility: 2mi
Dew Point: 37°   Wind: 0mph
Humidity: 100%   Direction: NA
Pressure: 29.73"   Gusts: NA
Location:  38.88°N, 81.86°W
Report Text: K3I2 260435Z AUTO 00000KT 2SM -RA OVC027 03/03 A2973 RMK AO2
Loading
Personal Weather Stations






























Interactive Weather Map New forecast layout! Learn more

10-Day Weather Forecast

Advertisements
Track Severe Weather on mobile